Tiempo atmosférico en la estación meteorológica de Madrid, Madrid (667 m.)



Fecha
DESCASC
Temp. máxima en grados centígrados (hora)
DESCASC
Temp. mínima en grados centígrados (hora)
DESCASC
Temp. media en grados centígrados
DESCASC
Racha de viento máxima en m/sg (hora)
DESCASC
Velocidad máxima media en intervalos de 10 minutos(hora)
DESCASC
Precipitaciones diarias en mm
DESCASC
Precipitaciones de 00:00 a 06:00 en mm
DESCASC
Precipitaciones de 06:00 a 12:00 en mm
DESCASC
Precipitaciones de 12:00 a 18:00 en mm
DESCASC
Precipitaciones de 18:00 a 24:00 en mm
DESCASC

Gráficas

Temp. máximas Temp. mínimas Temp. medias Precipitaciones Rachas de viento máximas Velocidades máximas media en intervalos de 10 minutos

Datos horarios

Fecha y hora oficial Temperatura (ºC) Velocidad del viento (km/h) Dirección del viento Racha (km/h) Dirección de racha Precipitación (mm) Presión (hPa) Tendencia (hPa) Humedad (%)
2020-01-22 23:00:00 5.3 13 Nordeste 29 Este 0 939.4 0.9 70
2020-01-22 22:00:00 5.8 13 Nordeste 24 Nordeste 0 939.1 1.3 67
2020-01-22 21:00:00 5.9 13 Nordeste 26 Nordeste 0 938.8 1 66
2020-01-22 20:00:00 6.1 12 Nordeste 25 Este 0 938.5 0.5 65
2020-01-22 19:00:00 6.9 10 Nordeste 22 Nordeste 0 937.8 -0.4 65
2020-01-22 18:00:00 7.2 7 Este 19 Sur 0.9 937.8 -0.8 78
2020-01-22 17:00:00 9.5 9 Sudeste 20 Sudeste 0 938 -1.1 51
2020-01-22 16:00:00 9.4 6 Este 17 Este 0 938.2 -1.9 52
2020-01-22 15:00:00 9.8 7 Este 19 Sudeste 0 938.6 -2.5 51
2020-01-22 14:00:00 9.1 8 Este 26 Nordeste 0 939.1 -1.7 55
2020-01-22 13:00:00 8.1 9 Nordeste 26 Nordeste 0 940.1 -0.2 61
2020-01-22 12:00:00 6.2 8 Este 26 Nordeste 0 941.1 1.1 68
2020-01-22 11:00:00 5.6 13 Nordeste 28 Nordeste 0 940.8 1.4 71
2020-01-22 10:00:00 4.8 13 Nordeste 27 Nordeste 0.2 940.3 1.3 76
2020-01-22 09:00:00 4.5 13 Nordeste 30 Nordeste 0.2 940 1 74
2020-01-22 08:00:00 4.8 11 Nordeste 28 Nordeste 0 939.4 0.4 69
2020-01-22 07:00:00 4.5 16 Nordeste 32 Nordeste 0 939 -0.3 68
2020-01-22 06:00:00 4.5 16 Nordeste 37 Nordeste 0 939 -0.4 67
2020-01-22 05:00:00 4.5 19 Nordeste 33 Nordeste 0 939 -0.2 67
2020-01-22 04:00:00 4.7 11 Nordeste 32 Nordeste 0 939.3 0.2 67
2020-01-22 03:00:00 4.9 12 Nordeste 35 Nordeste 0 939.4 0.3 69
2020-01-22 02:00:00 4.8 15 Nordeste 38 Nordeste 0 939.2 0.5 69
2020-01-22 01:00:00 4.8 18 Nordeste 44 Nordeste 0 939.1 0.6 70
2020-01-22 00:00:00 4.7 21 Nordeste 42 Nordeste 0 939.1 1.2 71
2020-01-21 23:00:00 5 18 Nordeste 38 Nordeste 0 938.7 1 71
2020-01-21 22:00:00 5.1 20 Nordeste 38 Nordeste 0 938.5 1 71
2020-01-21 21:00:00 5.2 17 Nordeste 51 Nordeste 0 937.9 0.4 71
2020-01-21 20:00:00 5 15 Nordeste 46 Nordeste 0 937.7 0.2 71
2020-01-21 19:00:00 4.4 17 Nordeste 43 Nordeste 0.2 937.5 0 76
2020-01-21 18:00:00 4.4 15 Nordeste 40 Nordeste 0.3 937.5 0.5 79
2020-01-21 17:00:00 4.3 17 Nordeste 43 Nordeste 2.2 937.5 -0.8 80
2020-01-21 16:00:00 6.3 18 Nordeste 62 Nordeste 0 937.5 -1.5 56
2020-01-21 15:00:00 7 21 Nordeste 47 Nordeste 0 937 -2.7 55
2020-01-21 14:00:00 6.5 23 Nordeste 51 Este 0 938.3 -1.4 57
2020-01-21 13:00:00 6 22 Nordeste 54 Nordeste 0 939 -1.2 57
2020-01-21 12:00:00 5.4 27 Nordeste 54 Nordeste 0 939.7 -0.4 58
2020-01-21 11:00:00 5.4 25 Nordeste 52 Nordeste 0 939.7 -0.7 57
2020-01-21 10:00:00 4.9 26 Nordeste 56 Nordeste 0 940.2 -0.5 58
2020-01-21 09:00:00 4.9 22 Nordeste 56 Nordeste 0 940.1 -0.7 55
2020-01-21 08:00:00 4.5 27 Nordeste 55 Nordeste 0 940.4 -1 55
2020-01-21 07:00:00 4.1 21 Nordeste 62 Nordeste 0 940.7 -1.7 55
2020-01-21 06:00:00 4 27 Nordeste 59 Nordeste 0 940.8 -2 53
2020-01-21 05:00:00 4 21 Nordeste 63 Norte 0 941.4 -1.1 51
2020-01-21 04:00:00 3.9 25 Nordeste 57 Nordeste 0 942.4 -0.9 51
2020-01-21 03:00:00 3.8 19 Nordeste 54 Nordeste 0 942.8 -0.7 49
2020-01-21 02:00:00 4.2 26 Nordeste 57 Nordeste 0 942.5 -0.9 48
2020-01-21 01:00:00 4.4 27 Nordeste 59 Nordeste 0 943.3 -0.2 47
2020-01-21 00:00:00 4.4 19 Nordeste 54 Nordeste 0 943.5 -0.1 47
2020-01-20 23:00:00 4.1 22 Nordeste 49 Nordeste 0 943.4 0.1 46
2020-01-20 22:00:00 4 18 Nordeste 58 Nordeste 0 943.5 0.5 44
2020-01-20 21:00:00 4.3 25 Nordeste 54 Nordeste 0 943.6 1.2 43
2020-01-20 20:00:00 4.5 24 Nordeste 54 Nordeste 0 943.3 1.1 42
2020-01-20 19:00:00 4.8 24 Nordeste 56 Nordeste 0 943 1.1 40
2020-01-20 18:00:00 4.8 23 Nordeste 52 Nordeste 0 942.4 0.3 38
2020-01-20 17:00:00 5.2 23 Nordeste 68 Nordeste 0 942.2 -0.5 35
2020-01-20 16:00:00 5.5 19 Nordeste 56 Nordeste 0 941.9 -1.5 34
2020-01-20 15:00:00 5.4 22 Nordeste 53 Nordeste 0 942.1 -1.3 31
2020-01-20 14:00:00 5.1 23 Nordeste 58 Nordeste 0 942.7 -0.4 29
2020-01-20 13:00:00 5.3 21 Nordeste 50 Este 0 943.4 0 26
2020-01-20 12:00:00 4.8 20 Nordeste 51 Nordeste 0 943.4 0.2 24
2020-01-20 11:00:00 3.7 24 Nordeste 57 Nordeste 0 943.1 -0.1 25
2020-01-20 10:00:00 3.1 24 Nordeste 54 Nordeste 0 943.4 0.2 25
2020-01-20 09:00:00 2.7 23 Nordeste 46 Nordeste 0 943.2 -0.1 25
2020-01-20 08:00:00 2.3 19 Nordeste 49 Nordeste 0 943.2 -0.3 27
2020-01-20 07:00:00 1.7 14 Nordeste 38 Nordeste 0 943.2 -0.8 28
2020-01-20 06:00:00 2.3 15 Nordeste 46 Nordeste 0 943.3 -1.1 27
2020-01-20 05:00:00 2.9 20 Nordeste 40 Nordeste 0 943.5 -1.2 25
2020-01-20 04:00:00 3.1 16 Nordeste 47 Nordeste 0 944 -1.3 26
2020-01-20 03:00:00 3.4 21 Nordeste 49 Nordeste 0 944.4 -1 25
2020-01-20 02:00:00 3 16 Nordeste 44 Nordeste 0 944.7 -0.3 27
2020-01-20 01:00:00 3.2 14 Nordeste 37 Nordeste 0 945.3 0.8 27
2020-01-20 00:00:00 3.4 17 Nordeste 46 Nordeste 0 945.4 1.4 27
2020-01-19 23:00:00 3.9 23 Nordeste 46 Nordeste 0 945 1.8 26
2020-01-19 22:00:00 4.3 18 Nordeste 44 Nordeste 0 944.5 2 26
2020-01-19 21:00:00 5.1 16 Nordeste 48 Norte 0 944 2.1 26
2020-01-19 20:00:00 5.7 20 Nordeste 44 Norte 0 943.2 1.9 27
2020-01-19 19:00:00 6.6 23 Nordeste 51 Nordeste 0 942.5 1 25
2020-01-19 18:00:00 8.3 31 Nordeste 75 Nordeste 0.1 941.9 0.8 16
2020-01-19 17:00:00 9.3 33 Nordeste 73 Nordeste 0 941.3 -0.4 16
2020-01-19 16:00:00 9.8 27 Nordeste 57 Nordeste 0 941.5 0.1 20
2020-01-19 15:00:00 9.4 26 Nordeste 67 Nordeste 0 941.1 -1 21
2020-01-19 14:00:00 9.1 21 Nordeste 54 Nordeste 0 941.7 0 29
2020-01-19 13:00:00 8.6 20 Nordeste 53 Nordeste 0 941.4 0.9 35
2020-01-19 12:00:00 7.7 17 Norte 47 Norte 0 942.1 1.3 47
2020-01-19 11:00:00 7.1 18 Norte 44 Norte 0 941.7 1.5 51
2020-01-19 10:00:00 6.6 17 Norte 36 Norte 0 940.5 0.3 55
2020-01-19 09:00:00 6 9 Nordeste 32 Norte 0 940.8 0.3 63
2020-01-19 08:00:00 4.9 3 Este 8 Norte 0 940.2 -0.7 73
2020-01-19 07:00:00 4.3 3 Noroeste 7 Noroeste 0 940.2 -1 74
2020-01-19 06:00:00 4.4 3 Noroeste 13 Norte 0 940.5 -0.7 70
2020-01-19 05:00:00 4.3 8 Norte 16 Norte 0 940.9 0.2 74
2020-01-19 04:00:00 4.7 0 Calma 9 Nordeste 0 941.2 0.9 70
2020-01-19 03:00:00 4.4 3 Norte 8 Norte 0 941.2 0.1 72
2020-01-19 02:00:00 5.4 6 Noroeste 24 Noroeste 0 940.7 -0.9 68
2020-01-19 01:00:00 6 10 Noroeste 34 Noroeste 0 940.3 -1.4 67
2020-01-19 00:00:00 6.2 6 Noroeste 35 Oeste 0.4 941.1 -0.6 82
2020-01-18 23:00:00 7.2 6 Oeste 18 Oeste 0 941.6 -0.8 87
2020-01-18 22:00:00 7.7 6 Oeste 27 Oeste 0 941.7 -0.2 88
2020-01-18 21:00:00 7.8 11 Oeste 24 Sudoeste 0 941.7 -0.8 88
2020-01-18 20:00:00 8.4 7 Oeste 24 Oeste 0.1 942.4 -0.9 89
2020-01-18 19:00:00 8.5 8 Sudoeste 24 Sudoeste 0 941.9 -2.3 89
2020-01-18 18:00:00 8.1 8 Sudoeste 21 Sudoeste 0 942.5 -3.2 89
2020-01-18 17:00:00 8.1 8 Sudoeste 18 Oeste 0.1 943.3 -3.6 89
2020-01-18 16:00:00 7.8 6 Sudoeste 13 Sudoeste 0 944.2 -4.2 89
2020-01-18 15:00:00 7.5 4 Sudoeste 11 Sur 0.1 945.7 -4.1 89
2020-01-18 14:00:00 7.1 3 Sudoeste 14 Sur 0.1 946.9 -3.3 87
2020-01-18 13:00:00 7.1 4 Sur 15 Sur 0.3 948.4 -1.9 86
2020-01-18 12:00:00 6.7 4 Sur 12 Sur 0.1 949.8 -0.5 86
2020-01-18 11:00:00 6.3 3 Sur 9 Sur 0.1 950.2 -0.1 88
2020-01-18 10:00:00 5.9 0 Calma 6 Sur 0.3 950.3 -0.1 88
2020-01-18 09:00:00 5.4 0 Calma 10 Sudoeste 0 950.3 0.3 87
2020-01-18 08:00:00 5.3 0 Calma 12 Sudeste 0.5 950.3 -0.4 87
2020-01-18 07:00:00 5.4 0 Calma 9 Sudeste 0.3 950.4 -0.5 80
2020-01-18 06:00:00 5.2 5 Sudeste 12 Este 0 950 -0.8 71
2020-01-18 05:00:00 5.6 2 Este 8 Sudoeste 0 950.7 -0.6 78
2020-01-18 04:00:00 5.7 0 Calma 5 Sudoeste 0 950.9 -0.7 82
2020-01-18 03:00:00 5.9 2 Sudoeste 5 Sudoeste 0 950.8 -1.2 82
2020-01-18 02:00:00 6.2 0 Calma 9 Sur 0 951.3 -0.8 81
2020-01-18 01:00:00 6.8 4 Sur 12 Sur 0 951.6 -0.6 78
2020-01-18 00:00:00 7.4 5 Sudeste 13 Sudeste 0 952 -0.5 72
2020-01-17 23:00:00 7 0 Calma 9 Noroeste 0 952.1 -0.4 71
2020-01-17 22:00:00 7.1 4 Noroeste 10 Oeste 0 952.2 0.4 75
2020-01-17 21:00:00 7.4 0 Calma 14 Oeste 0 952.5 1 72
2020-01-17 20:00:00 8.3 5 Oeste 13 Oeste 0 952.5 1.4 70
2020-01-17 19:00:00 9.7 4 Sudoeste 14 Sudoeste 0 951.8 1.2 64
2020-01-17 18:00:00 10.4 7 Sudoeste 22 Oeste 0 951.5 1 57
2020-01-17 17:00:00 11.7 11 Sudoeste 24 Oeste 0 951.1 -0.1 54
2020-01-17 16:00:00 11.7 9 Sudoeste 23 Noroeste 0 950.6 -1 53
2020-01-17 15:00:00 11.7 9 Oeste 25 Oeste 0 950.5 -1.3 49
2020-01-17 14:00:00 11.4 10 Oeste 27 Sudoeste 0 951.2 0.1 58
2020-01-17 13:00:00 10.2 6 Oeste 28 Sudoeste 0 951.6 1.3 67
2020-01-17 12:00:00 9.8 13 Oeste 33 Oeste 0 951.8 1.8 69
2020-01-17 11:00:00 7.9 11 Oeste 27 Oeste 0 951.1 1.9 81
2020-01-17 10:00:00 6.6 8 Sudoeste 19 Sudoeste 0 950.3 1.3 86
2020-01-17 09:00:00 5.4 3 Oeste 8 Oeste 0 950 1.5 86
2020-01-17 08:00:00 5.2 5 Sudoeste 13 Oeste 0 949.2 1 83
2020-01-17 07:00:00 5.2 5 Sudoeste 10 Sudoeste 0 949 1 78
2020-01-17 06:00:00 6.2 6 Sudoeste 13 Sudoeste 0 948.5 0.5 74
2020-01-17 05:00:00 6.5 5 Sudoeste 13 Oeste 0 948.2 0.3 71
2020-01-17 04:00:00 7.1 5 Oeste 17 Oeste 0 948 -0.1 67
2020-01-17 03:00:00 7.1 7 Oeste 16 Oeste 0 948 0.3 65
2020-01-17 02:00:00 8.5 8 Sudoeste 25 Oeste 0 947.9 0.5 60
2020-01-17 01:00:00 8.9 14 Oeste 30 Oeste 0 948.1 1 57
2020-01-17 00:00:00 8.9 7 Sudoeste 17 Sudoeste 0 947.7 0.7 49
2020-01-16 23:00:00 9.1 5 Sudoeste 16 Sudoeste 0 947.4 0.5 52
2020-01-16 22:00:00 9.4 4 Sudoeste 13 Sudoeste 0 947.1 0.8 53
2020-01-16 21:00:00 10.2 8 Sudoeste 16 Sudoeste 0 947 0.9 52
2020-01-16 20:00:00 10.1 5 Sudoeste 10 Sudoeste 0 946.9 0.8 64
2020-01-16 19:00:00 10.2 4 Sudoeste 12 Sudoeste 0 946.3 -0.1 62
2020-01-16 18:00:00 11 4 Sudoeste 14 Sudoeste 0 946.1 -0.6 58
2020-01-16 17:00:00 12.3 8 Sudoeste 22 Sudoeste 0 946.1 -1.6 52
2020-01-16 16:00:00 12.1 5 Sudoeste 16 Sudoeste 0 946.4 -1.9 61
2020-01-16 15:00:00 11.4 4 Sudoeste 10 Oeste 0 946.7 -2.1 64
2020-01-16 14:00:00 10.4 3 Sudoeste 10 Oeste 0 947.7 -1 69
2020-01-16 13:00:00 9.5 4 Sur 9 Sur 0 948.3 -0.2 72
2020-01-16 12:00:00 8.6 2 Sur 11 Sudeste 0 948.8 0.5 74
2020-01-16 11:00:00 8.3 5 Sudeste 10 Sudeste 0 948.7 0.6 75
2020-01-16 10:00:00 7.7 3 Este 9 Sudeste 0 948.5 0.6 75
2020-01-16 09:00:00 7.6 3 Este 12 Este 0 948.3 0.6 74
2020-01-16 08:00:00 7.5 4 Este 8 Este 0 948.1 0.3 75
2020-01-16 07:00:00 7.4 4 Este 12 Este 0 947.9 -0.3 75
2020-01-16 06:00:00 7.3 4 Este 12 Este 0 947.7 -0.6 74
2020-01-16 05:00:00 7.4 3 Nordeste 12 Norte 0 947.8 -0.6 73
2020-01-16 04:00:00 7.2 3 Nordeste 16 Nordeste 0 948.2 -0.3 71
2020-01-16 03:00:00 7.2 9 Nordeste 15 Nordeste 0 948.3 -0.5 71
2020-01-16 02:00:00 7.5 4 Nordeste 11 Norte 0 948.4 -0.1 73
2020-01-16 01:00:00 7.4 2 Nordeste 10 Nordeste 0 948.5 0.2 71
2020-01-16 00:00:00 7.5 5 Nordeste 17 Este 0 948.8 0.7 70
2020-01-15 23:00:00 7.6 3 Este 11 Nordeste 0 948.5 0.6 69
2020-01-15 22:00:00 7.7 4 Este 7 Este 0 948.3 0.5 69
2020-01-15 21:00:00 7.7 3 Este 7 Este 0 948.1 1.1 70
2020-01-15 20:00:00 7.2 0 Calma 4 Sudoeste 0 947.9 1.1 73
2020-01-15 19:00:00 7.2 0 Calma 7 Sudoeste 0 947.8 1.1 72
2020-01-15 18:00:00 7.7 0 Calma 6 Este 0 947 0.9 70
2020-01-15 17:00:00 8 0 Calma 5 Sudeste 0 946.8 0.2 70
2020-01-15 16:00:00 7.4 0 Calma 8 Sudeste 0 946.7 -0.2 68
2020-01-15 15:00:00 7.2 5 Sudeste 9 Sudeste 0 946.1 -0.9 69
2020-01-15 14:00:00 6.5 3 Sudeste 8 Sudeste 0 946.6 0 71
2020-01-15 13:00:00 5.9 3 Sudeste 10 Sudeste 0 946.9 1.6 72
2020-01-15 12:00:00 5.7 5 Sudeste 10 Sudeste 0 947 2.2 74
2020-01-15 11:00:00 5.2 4 Sudeste 8 Sudeste 0 946.6 2.4 77
2020-01-15 10:00:00 4.4 2 Este 8 Sur 0 945.3 1.9 82
2020-01-15 09:00:00 3.2 3 Sur 10 Sur 0 944.8 1.9 83
2020-01-15 08:00:00 3.5 4 Sudeste 12 Sudeste 0 944.2 0.7 82
2020-01-15 07:00:00 3.4 3 Sur 12 Sudeste 0 943.4 -0.6 78
2020-01-15 06:00:00 3.7 6 Sur 13 Sudeste 0 942.9 -0.8 76
2020-01-15 05:00:00 3.7 4 Sudeste 9 Sudeste 0 943.5 -0.1 74
2020-01-15 04:00:00 4.5 0 Calma 6 Sur 0 944 0.1 70
2020-01-15 03:00:00 5.4 2 Sur 7 Sudeste 0 943.7 -0.3 68
2020-01-15 02:00:00 5.2 0 Calma 7 Sudeste 0 943.6 -0.4 67
2020-01-15 01:00:00 5.6 0 Calma 5 Este 0 943.9 0.3 65
2020-01-15 00:00:00 5.6 2 Este 9 Este 0 944 0.5 64
2020-01-14 23:00:00 5.4 4 Este 10 Sudeste 0 944 0.4 63
2020-01-14 22:00:00 5.2 4 Este 13 Nordeste 0 943.6 0.5 64
2020-01-14 21:00:00 5.6 5 Este 8 Este 0 943.5 0.8 66
2020-01-14 20:00:00 6.1 3 Oeste 9 Oeste 0 943.6 1 66
2020-01-14 19:00:00 6 4 Oeste 12 Oeste 0 943.1 0.5 66
2020-01-14 18:00:00 6.5 6 Sudoeste 15 Sudoeste 0 942.7 -0.3 60
2020-01-14 17:00:00 7.8 5 Sudoeste 15 Oeste 0 942.6 -1.1 58
2020-01-14 16:00:00 7.5 8 Sudoeste 23 Sudoeste 0 942.6 -1.8 58
2020-01-14 15:00:00 7.2 5 Sudoeste 14 Oeste 0 943 -1.9 59
2020-01-14 14:00:00 5.4 3 Sudoeste 16 Sudoeste 0 943.7 -1 63
2020-01-14 13:00:00 4.3 4 Sur 10 Sur 0 944.4 0 66
2020-01-14 12:00:00 3.2 4 Sudeste 10 Este 0 944.9 0.8 69
2020-01-14 11:00:00 1.9 5 Sudeste 11 Sudeste 0 944.7 1 73
2020-01-14 10:00:00 0.7 4 Este 8 Este 0 944.4 0.8 77
2020-01-14 09:00:00 -0.7 0 Calma 6 Nordeste 0 944.1 0.8 83
2020-01-14 08:00:00 -0.4 3 Este 8 Nordeste 0 943.7 0.2 81
2020-01-14 07:00:00 -0.1 4 Este 7 Este 0 943.6 -0.2 83
2020-01-14 06:00:00 -0.2 3 Este 5 Este 0 943.3 -0.1 85
2020-01-14 05:00:00 -0.1 3 Este 5 Este 0 943.5 -0.6 85
2020-01-14 04:00:00 -0.1 0 Calma 6 Sudeste 0 943.8 -0.6 85
2020-01-14 03:00:00 0.2 2 Sur 6 Sur 0 943.4 -1.7 82
2020-01-14 02:00:00 0.5 3 Sur 6 Sur 0 944.1 -0.8 80
2020-01-14 01:00:00 1.4 3 Sur 6 Sudeste 0 944.4 -0.4 77
2020-01-14 00:00:00 1.5 0 Calma 6 Sudoeste 0 945.1 0.4 75
2020-01-13 23:00:00 2.1 2 Sudoeste 5 Sudoeste 0 944.9 0.2 72
2020-01-13 22:00:00 2.6 3 Sudoeste 9 Sudoeste 0 944.8 0.1 69
2020-01-13 21:00:00 3.3 3 Sudoeste 7 Sur 0 944.7 -0.2 65
2020-01-13 20:00:00 4.4 4 Oeste 17 Sudoeste 0 944.7 -0.2 61
2020-01-13 19:00:00 5.2 6 Sudoeste 13 Sudoeste 0 944.7 -0.1 59
2020-01-13 18:00:00 6.4 7 Sudoeste 16 Sudoeste 0 944.9 -0.5 56
2020-01-13 17:00:00 7.3 7 Sudoeste 20 Sudoeste 0 944.9 -1 53
2020-01-13 16:00:00 6.9 4 Sur 16 Sudoeste 0 944.8 -2.1 56
2020-01-13 15:00:00 6.7 5 Sudoeste 13 Sudoeste 0 945.4 -1.9 55
2020-01-13 14:00:00 5.8 3 Sur 10 Sudoeste 0 945.9 -2.1 59
2020-01-13 13:00:00 4.8 3 Sudoeste 8 Oeste 0 946.9 -0.5 61
2020-01-13 12:00:00 3.5 0 Calma 6 Sudeste 0 947.3 0.1 64
2020-01-13 11:00:00 2.1 0 Calma 7 Sudeste 0 948 0.8 67
2020-01-13 10:00:00 0.7 4 Este 8 Sudeste 0 947.4 -0.1 71
2020-01-13 09:00:00 -0.3 3 Sudeste 6 Sudeste 0 947.2 -0.3 74
2020-01-13 08:00:00 -0.2 3 Este 6 Este 0 947.2 -0.7 74
2020-01-13 07:00:00 -0.4 0 Calma 6 Este 0 947.5 -0.6 74
2020-01-13 06:00:00 0 5 Este 8 Este 0 947.5 -1 72
2020-01-13 05:00:00 -0.1 2 Sudeste 6 Este 0 947.9 -0.8 71
2020-01-13 04:00:00 1.2 3 Este 9 Nordeste 0 948.1 -1.4 67
2020-01-13 03:00:00 1.5 5 Nordeste 12 Nordeste 0 948.5 -1.6 70
2020-01-13 02:00:00 1.4 2 Sudeste 4 Este 0 948.7 -1.3 73
2020-01-13 01:00:00 2 2 Este 5 Este 0 949.5 -0.6 72
2020-01-13 00:00:00 1.9 0 Calma 4 Sudeste 0 950.1 0 71
2020-01-12 23:00:00 2.9 2 Sur 4 Sudeste 0 950 0.2 67
2020-01-12 22:00:00 3.6 0 Calma 2 Sur 0 950.1 0.2 64
2020-01-12 21:00:00 3.7 0 Calma 5 Sur 0 950.1 0.8 62
2020-01-12 20:00:00 4.3 0 Calma 5 Sur 0 949.8 0.6 60
2020-01-12 19:00:00 5.2 4 Sur 8 Sur 0 949.9 0.7 55
2020-01-12 18:00:00 7 3 Sur 7 Sudoeste 0 949.3 -0.3 47
2020-01-12 17:00:00 8.4 3 Sur 9 Sur 0 949.2 -1.2 43
2020-01-12 16:00:00 8.4 3 Sudoeste 10 Sur 0 949.2 -2 45
2020-01-12 15:00:00 8 3 Sudeste 11 Sur 0 949.6 -2.5 47
2020-01-12 14:00:00 6.5 5 Sur 11 Sur 0 950.4 -1.7 50
2020-01-12 13:00:00 5.7 4 Sudeste 9 Sudeste 0 951.2 -0.5 53
2020-01-12 12:00:00 4 2 Sudeste 9 Sudeste 0 952.1 0.8 57
2020-01-12 11:00:00 2.3 5 Sudeste 9 Sudeste 0 952.1 0.8 60
2020-01-12 10:00:00 0.3 0 Calma 10 Nordeste 0 951.7 0.9 66
2020-01-12 09:00:00 -0.6 3 Este 8 Este 0 951.3 0.4 65
2020-01-12 08:00:00 -0.4 3 Este 8 Nordeste 0 951.3 0.5 64
2020-01-12 07:00:00 0 5 Este 8 Este 0 950.8 -0.3 63
2020-01-12 06:00:00 0.1 0 Calma 7 Nordeste 0 950.9 -0.2 66
2020-01-12 05:00:00 0.2 0 Calma 7 Nordeste 0 950.8 -0.2 64
2020-01-12 04:00:00 1.4 4 Este 10 Nordeste 0 951.1 -0.1 60
2020-01-12 03:00:00 1.7 3 Este 7 Este 0 951.1 -0.2 65
2020-01-12 02:00:00 2.3 3 Este 9 Este 0 951 -0.5 65
2020-01-12 01:00:00 2.4 3 Este 5 Este 0 951.2 -0.2 69
2020-01-12 00:00:00 3.2 0 Calma 5 Este 0 951.3 0 64
2020-01-11 23:00:00 3.7 0 Calma 5 Oeste 0 951.5 0.5 63
2020-01-11 22:00:00 4.1 3 Oeste 5 Oeste 0 951.4 0.7 59
2020-01-11 21:00:00 4.4 4 Oeste 8 Sudoeste 0 951.3 1.3 59
2020-01-11 20:00:00 5.3 3 Sur 8 Sudoeste 0 951 0.6 54
2020-01-11 19:00:00 6.6 4 Sudoeste 9 Sur 0 950.7 0.3 48
2020-01-11 18:00:00 8.4 4 Sudoeste 10 Sudoeste 0 950 -0.6 43
2020-01-11 17:00:00 10 4 Oeste 10 Oeste 0 950.4 -0.6 40
2020-01-11 16:00:00 10.1 2 Sudoeste 10 Sudeste 0 950.4 -1.7 38
2020-01-11 15:00:00 9.6 0 Calma 10 Nordeste 0 950.6 -2.2 40
2020-01-11 14:00:00 8 3 Sudeste 14 Sudeste 0 951 -1.8 44
2020-01-11 13:00:00 7.3 7 Este 17 Nordeste 0 952.1 -0.1 47
2020-01-11 12:00:00 5.8 7 Nordeste 20 Nordeste 0 952.8 0.8 51
2020-01-11 11:00:00 4.4 8 Nordeste 21 Nordeste 0 952.8 0.9 55
2020-01-11 10:00:00 3.1 11 Nordeste 22 Nordeste 0 952.2 1 59
2020-01-11 09:00:00 2.4 11 Nordeste 18 Nordeste 0 952 0.9 62
2020-01-11 08:00:00 2.2 8 Nordeste 17 Nordeste 0 951.9 0.6 63
2020-01-11 07:00:00 2.5 7 Nordeste 14 Nordeste 0 951.2 -0.2 63
2020-01-11 06:00:00 2.7 5 Nordeste 15 Nordeste 0 951.1 -0.1 62
2020-01-11 05:00:00 2.8 6 Nordeste 14 Nordeste 0 951.3 0.4 63
2020-01-11 04:00:00 2.9 7 Nordeste 20 Nordeste 0 951.4 0.4 63
2020-01-11 03:00:00 3.8 9 Nordeste 18 Nordeste 0 951.2 -0.1 60
2020-01-11 02:00:00 4.1 6 Nordeste 17 Nordeste 0 950.9 -0.1 59
2020-01-11 01:00:00 4.3 0 Calma 16 Nordeste 0 951 0.3 60
2020-01-11 00:00:00 5.2 5 Nordeste 18 Nordeste 0 951.3 0.8 59
2020-01-10 23:00:00 5.7 6 Nordeste 21 Nordeste 0 951 1 56
2020-01-10 22:00:00 6.7 13 Nordeste 24 Nordeste 0 950.7 1.1 49
2020-01-10 21:00:00 7.6 14 Norte 27 Norte 0 950.5 1.3 45
2020-01-10 20:00:00 7.2 9 Norte 27 Norte 0 950 1.3 45
2020-01-10 19:00:00 7.9 9 Norte 31 Norte 0 949.6 1.4 44
2020-01-10 18:00:00 9.1 10 Norte 27 Nordeste 0 949.2 1.1 41
2020-01-10 17:00:00 9.9 16 Nordeste 30 Nordeste 0 948.7 0.3 39
2020-01-10 16:00:00 10.3 14 Nordeste 35 Nordeste 0 948.2 -1 37
2020-01-10 15:00:00 10.3 17 Nordeste 33 Nordeste 0 948.1 -1.2 37
2020-01-10 14:00:00 9.8 16 Norte 33 Nordeste 0 948.4 -0.8 40
2020-01-10 13:00:00 9.2 18 Norte 32 Norte 0 949.2 0.2 42
2020-01-10 12:00:00 8.4 13 Norte 28 Nordeste 0 949.3 1 49
2020-01-10 11:00:00 6.4 6 Este 18 Nordeste 0 949.2 1.3 61
2020-01-10 10:00:00 4.6 5 Este 15 Sudeste 0 949 2.2 65
2020-01-10 09:00:00 4.1 3 Nordeste 24 Nordeste 0 948.3 2.1 66
2020-01-10 08:00:00 4.7 12 Nordeste 19 Nordeste 0 947.9 2.1 65
2020-01-10 07:00:00 4 3 Este 10 Este 0 946.8 0.6 73
2020-01-10 06:00:00 4.2 0 Calma 9 Sudeste 0 946.2 0.3 71
2020-01-10 05:00:00 5.5 4 Sudeste 7 Noroeste 0 945.8 0.1 64
2020-01-10 04:00:00 5.6 4 Noroeste 12 Noroeste 0 946.2 0.4 60
2020-01-10 03:00:00 6.9 7 Noroeste 19 Noroeste 0 945.9 -0.2 56
2020-01-10 02:00:00 7.9 11 Noroeste 33 Oeste 0 945.7 0 56
2020-01-10 01:00:00 7.6 13 Noroeste 34 Noroeste 0 945.8 -0.2 66
2020-01-10 00:00:00 5.9 5 Oeste 17 Noroeste 0 946.1 -0.3 73
2020-01-09 23:00:00 6.1 6 Sudoeste 14 Sudoeste 0 945.7 -0.8 73
2020-01-09 22:00:00 7.2 5 Sudoeste 14 Sudoeste 0 946 -0.1 68
2020-01-09 21:00:00 8.8 0 Calma 14 Oeste 0 946.4 0.6 63
2020-01-09 20:00:00 9 5 Oeste 12 Oeste 0 946.5 0.7 62
2020-01-09 19:00:00 8.4 4 Oeste 12 Sudoeste 0 946.1 0.2 61
2020-01-09 18:00:00 9.8 4 Sudoeste 12 Sudoeste 0 945.8 -0.8 55
2020-01-09 17:00:00 11 3 Sudoeste 12 Sur 0 945.8 -1 52
2020-01-09 16:00:00 11.4 5 Sur 15 Sur 0 945.9 -1.8 50
2020-01-09 15:00:00 10.9 5 Oeste 13 Sur 0 946.6 -1.8 50
2020-01-09 14:00:00 9.9 5 Sudoeste 13 Sur 0 946.8 -2.1 53
2020-01-09 13:00:00 9.6 4 Sudoeste 12 Sudoeste 0 947.7 -0.6 54
2020-01-09 12:00:00 8.3 4 Sur 9 Sur 0 948.4 0.2 56
2020-01-09 11:00:00 6.7 4 Sudeste 9 Sudeste 0 948.9 0.7 62
2020-01-09 10:00:00 5.2 2 Este 10 Este 0 948.3 0.2 64
2020-01-09 09:00:00 4.7 5 Nordeste 9 Este 0 948.2 0.1 65
2020-01-09 08:00:00 3.9 2 Este 7 Nordeste 0 948.2 -0.4 67
2020-01-09 07:00:00 4.2 4 Nordeste 8 Nordeste 0 948.1 -0.8 64
2020-01-09 06:00:00 4.4 0 Calma 7 Este 0 948.1 -1.1 67
2020-01-09 05:00:00 5.2 0 Calma 6 Nordeste 0 948.6 -0.6 64
2020-01-09 04:00:00 6 3 Nordeste 9 Este 0 948.9 -0.7 61
2020-01-09 03:00:00 6.5 4 Este 9 Este 0 949.2 -0.6 61
2020-01-09 02:00:00 6.4 3 Este 6 Sudeste 0 949.2 -0.4 64
2020-01-09 01:00:00 6.9 3 Este 6 Sudeste 0 949.6 0 59
2020-01-09 00:00:00 6.9 3 Este 6 Sudeste 0 949.8 0.4 55
2020-01-08 23:00:00 7.1 0 Calma 4 Sur 0 949.6 0.2 51
2020-01-08 22:00:00 8 0 Calma 3 Sur 0 949.6 0.4 43
2020-01-08 21:00:00 9.1 0 Calma 6 Sur 0 949.4 0.7 41
2020-01-08 20:00:00 9.4 3 Sur 7 Sur 0 949.4 0.7 38
2020-01-08 19:00:00 10.1 0 Calma 5 Oeste 0 949.2 0.6 36
2020-01-08 18:00:00 11.1 2 Sudoeste 5 Sudoeste 0 948.7 0 34
2020-01-08 17:00:00 12.7 2 Sudoeste 8 Sudoeste 0 948.7 -0.4 34
2020-01-08 16:00:00 13.3 4 Sudeste 10 Sudeste 0 948.6 -1.2 27
2020-01-08 15:00:00 12.9 4 Sudeste 10 Sur 0 948.7 -1.8 30
2020-01-08 14:00:00 11.5 4 Sudeste 8 Sudeste 0 949.1 -1.7 36
2020-01-08 13:00:00 10.2 3 Sudeste 10 Sudeste 0 949.8 -0.9 41
2020-01-08 12:00:00 8.6 3 Sudeste 8 Este 0 950.5 0.6 44
2020-01-08 11:00:00 6.6 3 Este 8 Nordeste 0 950.8 1.1 51
2020-01-08 10:00:00 4.5 3 Nordeste 9 Este 0 950.7 0.9 62
2020-01-08 09:00:00 2.1 3 Este 4 Este 0 949.9 -0.1 70
2020-01-08 08:00:00 2 0 Calma 5 Este 0 949.7 -0.4 69
2020-01-08 07:00:00 2.1 2 Sudeste 4 Este 0 949.8 -0.6 70
2020-01-08 06:00:00 2.1 3 Este 6 Este 0 950 -0.5 70
2020-01-08 05:00:00 2.5 0 Calma 5 Nordeste 0 950.1 -0.2 71
2020-01-08 04:00:00 3 0 Calma 5 Este 0 950.4 -0.2 70
2020-01-08 03:00:00 3.2 0 Calma 7 Este 0 950.5 -0.3 69
2020-01-08 02:00:00 4.2 4 Este 12 Este 0 950.3 -0.6 67
2020-01-08 01:00:00 4.7 0 Calma 9 Este 0 950.6 -0.4 67
2020-01-08 00:00:00 5.2 3 Sudeste 4 Este 0 950.8 0 70
2020-01-07 23:00:00 5.8 0 Calma 4 Este 0 950.9 0 67
2020-01-07 22:00:00 6.1 2 Noroeste 7 Oeste 0 951 0.1 65
2020-01-07 21:00:00 6.2 4 Oeste 6 Oeste 0 950.8 0.2 61
2020-01-07 20:00:00 7.1 0 Calma 4 Sur 0 950.9 0.4 56
2020-01-07 19:00:00 8.5 2 Sudoeste 6 Sur 0 950.9 0.2 49
2020-01-07 18:00:00 9.9 3 Sudoeste 8 Sudoeste 0 950.6 -0.4 42
2020-01-07 17:00:00 11.6 4 Sudoeste 7 Sudoeste 0 950.5 -0.8 38
2020-01-07 16:00:00 11.8 3 Sur 8 Sudoeste 0 950.7 -1.7 37
2020-01-07 15:00:00 11.1 0 Calma 10 Sudoeste 0 951 -1.6 38
2020-01-07 14:00:00 10.1 4 Sur 9 Sudeste 0 951.3 -1.2 41
2020-01-07 13:00:00 8.8 2 Este 11 Este 0 952.4 -0.2 40
2020-01-07 12:00:00 7.4 3 Este 10 Este 0 952.6 0.5 43
2020-01-07 11:00:00 4.6 4 Sudeste 6 Sur 0 952.5 0.9 59
2020-01-07 10:00:00 2.4 0 Calma 7 Nordeste 0 952.6 1.1 64
2020-01-07 09:00:00 0.9 0 Calma 5 Nordeste 0 952.1 0.7 70
2020-01-07 08:00:00 1.7 2 Sudeste 6 Este 0 951.6 -0.1 66
2020-01-07 07:00:00 2.2 2 Este 9 Nordeste 0 951.5 -0.1 65
2020-01-07 06:00:00 2.4 3 Este 10 Nordeste 0 951.4 -0.3 70
2020-01-07 05:00:00 2.2 2 Norte 9 Nordeste 0 951.7 0.4 74
2020-01-07 04:00:00 2.4 0 Calma 6 Este 0 951.6 0.3 71
2020-01-07 03:00:00 3.3 0 Calma 7 Este 0 951.7 0.3 71
2020-01-07 02:00:00 4.5 4 Este 7 Este 0 951.3 0.2 66
2020-01-07 01:00:00 4.8 3 Nordeste 10 Nordeste 0 951.3 0.5 70
2020-01-07 00:00:00 5.4 4 Este 8 Nordeste 0 951.4 1 70
2020-01-06 23:00:00 5.9 4 Este 7 Este 0 951.1 1.1 72
2020-01-06 22:00:00 6.4 2 Este 7 Noroeste 0 950.8 1.3 70
2020-01-06 21:00:00 6.6 3 Noroeste 8 Noroeste 0 950.4 1.2 68
2020-01-06 20:00:00 7 4 Oeste 8 Oeste 0 950 1.1 64
2020-01-06 19:00:00 7.9 3 Sudoeste 6 Sudoeste 0 949.5 0.4 56
2020-01-06 18:00:00 9.3 2 Sudoeste 6 Sudoeste 0 949.2 0.5 49
2020-01-06 17:00:00 10.9 3 Sur 9 Sudoeste 0 948.9 -0.3 44
2020-01-06 16:00:00 11.2 4 Sudoeste 10 Sur 0 949.1 -0.6 45
2020-01-06 15:00:00 10.9 6 Sur 12 Sudeste 0 948.7 -2 46
2020-01-06 14:00:00 9.8 4 Sur 11 Sur 0 949.2 -1.4 47
2020-01-06 13:00:00 8.9 3 Sudeste 10 Sudeste 0 949.7 -0.7 45
2020-01-06 12:00:00 7.4 4 Este 8 Este 0 950.7 0.7 46
2020-01-06 11:00:00 5.4 4 Este 10 Este 0 950.6 1.1 52
2020-01-06 10:00:00 3.4 3 Este 11 Nordeste 0 950.4 1.4 58